Time;durP1;ratioP1;P1;durP2;ratioP2;P2;SDS_P1;SDS_P2;PMS_P1;PMS_P2;Temp;Humidity;BMP_temperature;BMP_pressure;BME280_temperature;BME280_humidity;BME280_pressure;Samples;Min_cycle;Max_cycle;Signal;HPM_P1;HPM_P2
2021/06/02 00:01:52;;;;;;;1.88;1.38;;;18.50;47.90;;;;;;4993122;28;20565;-81
2021/06/02 00:04:20;;;;;;;;;;;18.50;48.30;;;;;;5002107;28;20502;-80
2021/06/02 00:06:46;;;;;;;3.03;1.50;;;;;;;;;;5003740;28;19916;-82
2021/06/02 00:09:13;;;;;;;6.28;1.77;;;;;;;;;;5005064;28;20026;-80
2021/06/02 00:11:39;;;;;;;2.03;1.25;;;;;;;;;;5007376;28;20074;-81
2021/06/02 00:14:05;;;;;;;2.63;1.70;;;;;;;;;;5006017;28;20061;-80
2021/06/02 00:16:31;;;;;;;5.57;1.48;;;;;;;;;;4995689;28;20058;-82
2021/06/02 00:18:58;;;;;;;3.63;1.73;;;18.60;48.60;;;;;;4994648;28;20022;-80
2021/06/02 00:21:24;;;;;;;2.58;1.30;;;;;;;;;;4995125;28;20065;-81
2021/06/02 00:23:50;;;;;;;4.80;1.73;;;;;;;;;;4992903;28;20069;-80
2021/06/02 00:26:18;;;;;;;3.13;1.52;;;18.80;48.40;;;;;;5005023;28;20103;-80
2021/06/02 00:28:44;;;;;;;2.45;1.55;;;;;;;;;;4995208;28;20026;-82
2021/06/02 00:31:10;;;;;;;2.25;1.42;;;18.70;47.60;;;;;;4994598;28;20041;-82
2021/06/02 00:33:37;;;;;;;1.33;1.00;;;18.70;47.90;;;;;;4994690;28;20057;-81
2021/06/02 00:36:03;;;;;;;3.75;1.55;;;;;;;;;;4993326;28;20118;-81
2021/06/02 00:38:29;;;;;;;1.98;1.55;;;;;;;;;;4992399;28;20038;-81
2021/06/02 00:40:55;;;;;;;3.30;1.70;;;;;;;;;;4994606;28;20046;-82
2021/06/02 00:43:21;;;;;;;2.50;1.42;;;;;;;;;;5000452;28;20029;-81
2021/06/02 00:45:47;;;;;;;4.15;2.00;;;;;;;;;;5002955;28;20067;-83
2021/06/02 00:48:16;;;;;;;6.28;1.55;;;19.10;48.00;;;;;;5003868;28;20371;-81
2021/06/02 00:50:44;;;;;;;2.30;1.58;;;19.10;47.30;;;;;;4988771;28;20506;-82
2021/06/02 00:53:10;;;;;;;2.78;1.38;;;;;;;;;;4994698;28;20120;-82
2021/06/02 00:55:36;;;;;;;2.10;1.35;;;;;;;;;;4994605;28;20026;-81
2021/06/02 00:58:03;;;;;;;4.30;1.70;;;18.80;47.80;;;;;;4992223;28;20420;-81
2021/06/02 01:00:29;;;;;;;1.53;1.17;;;;;;;;;;4993018;28;20125;-81
2021/06/02 01:02:57;;;;;;;2.33;2.10;;;18.80;48.50;;;;;;5005769;28;20086;-81
2021/06/02 01:05:24;;;;;;;2.42;1.35;;;18.70;48.80;;;;;;4974808;28;20109;-81
2021/06/02 01:07:52;;;;;;;2.90;1.58;;;18.60;49.10;;;;;;5004239;28;20030;-81
2021/06/02 01:10:19;;;;;;;4.55;1.90;;;18.70;49.30;;;;;;4990772;28;20022;-80
2021/06/02 01:12:48;;;;;;;1.95;1.00;;;18.90;48.60;;;;;;5001687;28;20415;-82
2021/06/02 01:15:14;;;;;;;2.30;1.38;;;;;;;;;;4969708;28;20046;-82
2021/06/02 01:17:40;;;;;;;2.92;1.90;;;;;;;;;;4971093;28;20035;-82
2021/06/02 01:20:06;;;;;;;2.13;1.60;;;19.00;72.10;;;;;;4974969;28;20487;-81
2021/06/02 01:22:36;;;;;;;3.72;1.45;;;;;;;;;;4974962;28;20035;-82
2021/06/02 01:25:16;;;;;;;4.35;2.08;;;19.10;48.50;;;;;;4974949;28;20047;-81
2021/06/02 01:27:42;;;;;;;3.33;1.85;;;;;;;;;;4974094;28;20034;-81
2021/06/02 01:30:17;;;;;;;4.85;1.63;;;19.40;46.70;;;;;;4977204;28;20033;-81
2021/06/02 01:32:56;;;;;;;2.55;1.60;;;19.10;47.90;;;;;;4992048;28;20484;-82
2021/06/02 01:35:24;;;;;;;4.93;1.73;;;18.80;49.00;;;;;;4989928;28;20084;-83
2021/06/02 01:38:24;;;;;;;4.07;1.67;;;18.50;72.60;;;;;;4988608;28;20037;-81
2021/06/02 01:40:53;;;;;;;6.15;1.38;;;18.70;73.40;;;;;;4978110;28;20130;-82
2021/06/02 01:43:44;;;;;;;1.90;1.58;;;18.90;57.50;;;;;;4993497;28;20466;-81
2021/06/02 01:46:28;;;;;;;4.70;1.48;;;18.70;56.10;;;;;;4939989;28;20123;-83
2021/06/02 01:49:15;;;;;;;2.65;1.42;;;18.90;60.60;;;;;;4935156;28;20042;-82
2021/06/02 01:51:41;;;;;;;13.70;2.40;;;;;;;;;;4937906;28;20043;-81
2021/06/02 01:54:41;;;;;;;1.88;1.27;;;18.60;50.00;;;;;;4935202;28;20038;-82
2021/06/02 01:57:25;;;;;;;3.25;2.25;;;18.50;50.70;;;;;;4947624;28;20035;-82
2021/06/02 01:59:51;;;;;;;2.38;1.40;;;;;;;;;;4948543;28;20464;-82
2021/06/02 02:02:41;;;;;;;3.90;1.55;;;18.60;50.70;;;;;;4932486;28;20167;-82
2021/06/02 02:05:38;;;;;;;2.60;1.27;;;18.90;50.20;;;;;;4951496;29;20047;-81
2021/06/02 02:08:43;;;;;;;2.72;1.70;;;18.90;58.40;;;;;;4937783;29;20103;-82
2021/06/02 02:11:23;;;;;;;4.57;1.60;;;18.90;50.00;;;;;;4947730;29;20102;-81
2021/06/02 02:14:17;;;;;;;3.08;1.70;;;19.00;49.40;;;;;;4941310;29;20038;-81
2021/06/02 02:17:28;;;;;;;5.88;2.13;;;18.80;50.40;;;;;;4938037;29;20055;-81
2021/06/02 02:20:16;;;;;;;7.07;2.35;;;18.70;50.00;;;;;;4880188;29;20093;-82
2021/06/02 02:23:06;;;;;;;2.03;1.40;;;18.80;73.30;;;;;;4877643;29;20131;-81
2021/06/02 02:26:07;;;;;;;2.00;1.25;;;18.50;73.50;;;;;;4920337;29;20032;-82
2021/06/02 02:28:33;;;;;;;3.00;1.77;;;;;;;;;;4904142;29;20032;-81
2021/06/02 02:30:59;;;;;;;4.00;2.10;;;;;;;;;;4920122;29;20044;-83
2021/06/02 02:33:53;;;;;;;3.50;2.03;;;18.40;50.90;;;;;;4917318;29;20036;-81
2021/06/02 02:36:29;;;;;;;2.15;1.60;;;18.50;51.50;;;;;;4926760;29;20024;-82
2021/06/02 02:39:16;;;;;;;4.75;1.58;;;18.50;51.30;;;;;;4931216;29;20115;-80
2021/06/02 02:41:53;;;;;;;2.38;1.60;;;18.50;52.30;;;;;;4926334;29;20071;-81
2021/06/02 02:44:38;;;;;;;;;;;18.60;55.00;;;;;;4928766;29;20504;-81
2021/06/02 02:47:34;;;;;;;3.70;2.10;;;18.50;62.20;;;;;;4927964;29;19933;-81
2021/06/02 02:51:01;;;;;;;3.30;1.80;;;18.50;55.40;;;;;;4917266;29;20131;-81
2021/06/02 02:53:50;;;;;;;3.08;1.65;;;18.30;57.10;;;;;;4881132;29;20037;-81
2021/06/02 02:56:25;;;;;;;5.22;1.75;;;18.30;56.80;;;;;;4919410;29;20417;-82
2021/06/02 02:59:23;;;;;;;4.10;1.92;;;18.30;58.60;;;;;;4927292;29;20453;-81
2021/06/02 03:02:28;;;;;;;3.45;2.00;;;18.40;60.70;;;;;;4894321;29;20056;-82
2021/06/02 03:04:57;;;;;;;2.78;1.42;;;18.30;60.90;;;;;;4916923;29;20171;-82
2021/06/02 03:07:24;;;;;;;4.05;1.77;;;18.30;60.50;;;;;;4919940;29;20059;-82
2021/06/02 03:10:14;;;;;;;2.20;1.73;;;18.50;59.50;;;;;;4924690;29;20028;-82
2021/06/02 03:13:02;;;;;;;4.13;2.13;;;18.50;74.90;;;;;;4927036;29;20048;-81
2021/06/02 03:15:46;;;;;;;4.25;2.42;;;18.20;80.20;;;;;;4919896;29;20123;-81
2021/06/02 03:18:35;;;;;;;2.97;2.15;;;18.40;60.10;;;;;;4919972;29;20058;-82
2021/06/02 03:21:29;;;;;;;12.45;2.90;;;18.80;82.20;;;;;;4930289;29;20047;-82
2021/06/02 03:24:01;;;;;;;4.53;2.20;;;18.90;57.80;;;;;;4930291;29;20024;-82
2021/06/02 03:26:30;;;;;;;4.18;2.38;;;18.60;58.00;;;;;;4925571;28;20122;-81
2021/06/02 03:29:10;;;;;;;5.10;3.13;;;18.60;62.30;;;;;;4970404;28;20034;-82
2021/06/02 03:31:58;;;;;;;8.15;1.67;;;18.40;62.50;;;;;;4959311;28;20047;-80
2021/06/02 03:34:23;;;;;;;;;;;18.40;60.60;;;;;;4959653;28;20111;-80
2021/06/02 03:36:49;;;;;;;3.83;2.53;;;;;;;;;;4962759;28;19918;-81
2021/06/02 03:39:39;;;;;;;3.88;2.25;;;18.70;84.20;;;;;;4968416;28;20041;-81
2021/06/02 03:42:27;;;;;;;2.50;1.98;;;18.40;60.30;;;;;;4975158;28;20042;-82
2021/06/02 03:45:33;;;;;;;3.58;2.15;;;18.50;60.60;;;;;;4973254;28;20563;-82
2021/06/02 03:48:02;;;;;;;5.57;2.10;;;18.60;65.90;;;;;;4988620;28;20129;-82
2021/06/02 03:50:33;;;;;;;7.75;3.05;;;18.50;60.60;;;;;;5002592;28;20076;-81
2021/06/02 03:53:26;;;;;;;2.80;2.38;;;18.70;60.80;;;;;;4975548;28;20097;-81
2021/06/02 03:56:18;;;;;;;4.10;2.25;;;18.40;60.30;;;;;;4986300;28;20043;-82
2021/06/02 03:59:03;;;;;;;10.90;2.58;;;18.40;62.10;;;;;;4990490;28;20031;-82
2021/06/02 04:01:32;;;;;;;3.05;2.63;;;18.50;62.50;;;;;;4974754;28;20070;-81
2021/06/02 04:04:06;;;;;;;4.60;2.97;;;18.40;61.50;;;;;;4976079;28;20098;-81
2021/06/02 04:06:49;;;;;;;3.97;2.10;;;18.30;62.40;;;;;;4976122;28;20096;-81
2021/06/02 04:09:29;;;;;;;4.88;2.58;;;;;;;;;;4975909;28;20030;-81
2021/06/02 04:12:46;;;;;;;3.33;2.40;;;18.40;61.70;;;;;;4973144;28;20113;-82
2021/06/02 04:15:13;;;;;;;3.67;2.25;;;18.20;60.70;;;;;;4917944;29;20080;-81
2021/06/02 04:17:45;;;;;;;2.38;2.17;;;18.60;61.30;;;;;;4929570;29;20035;-82
2021/06/02 04:20:12;;;;;;;6.10;2.55;;;;;;;;;;4926440;29;20067;-82
2021/06/02 04:22:41;;;;;;;5.30;2.55;;;18.50;61.10;;;;;;4929533;29;20047;-81
2021/06/02 04:25:08;;;;;;;2.17;1.60;;;18.50;62.50;;;;;;4920704;29;20413;-82
2021/06/02 04:27:38;;;;;;;3.67;2.42;;;18.50;62.20;;;;;;4929157;29;20043;-80
2021/06/02 04:30:06;;;;;;;4.80;2.20;;;18.60;62.00;;;;;;4929257;29;20102;-82
2021/06/02 04:32:46;;;;;;;4.78;2.47;;;18.50;62.00;;;;;;4929333;29;20078;-81
2021/06/02 04:35:18;;;;;;;4.07;3.22;;;18.30;85.60;;;;;;4926406;29;20037;-82
2021/06/02 04:37:45;;;;;;;4.75;2.38;;;18.40;61.70;;;;;;4925701;29;20596;-83
2021/06/02 04:40:12;;;;;;;18.65;2.33;;;18.30;60.50;;;;;;4929222;29;20110;-81
2021/06/02 04:42:40;;;;;;;2.47;2.00;;;18.40;60.70;;;;;;4929083;29;20076;-81
2021/06/02 04:45:08;;;;;;;2.50;1.30;;;18.30;62.00;;;;;;4928878;29;20284;-81
2021/06/02 04:47:35;;;;;;;6.53;2.03;;;18.50;62.20;;;;;;4928926;29;20078;-81
2021/06/02 04:50:15;;;;;;;3.97;1.85;;;18.50;62.40;;;;;;4987808;28;20614;-82
2021/06/02 04:53:31;;;;;;;2.03;1.50;;;18.80;86.20;;;;;;4999212;28;20046;-82
2021/06/02 04:56:27;;;;;;;3.40;2.67;;;18.50;74.30;;;;;;4975579;28;20035;-82
2021/06/02 04:59:30;;;;;;;2.28;1.70;;;19.00;62.20;;;;;;4988242;28;20070;-82
2021/06/02 05:02:13;;;;;;;4.32;1.88;;;18.90;82.30;;;;;;4988604;28;20041;-81
2021/06/02 05:05:04;;;;;;;3.63;2.30;;;19.10;62.20;;;;;;5004607;28;20034;-81
2021/06/02 05:08:00;;;;;;;5.57;2.17;;;19.30;61.40;;;;;;4988114;28;20129;-82
2021/06/02 05:11:18;;;;;;;1.70;1.50;;;19.20;62.10;;;;;;4988177;28;20923;-82
2021/06/02 05:14:11;;;;;;;6.68;2.65;;;19.00;62.40;;;;;;4990466;28;20068;-82
2021/06/02 05:16:57;;;;;;;2.00;1.80;;;18.90;72.70;;;;;;4989808;28;20129;-82
2021/06/02 05:20:15;;;;;;;1.73;1.13;;;19.00;87.60;;;;;;4991290;28;20018;-82
2021/06/02 05:23:14;;;;;;;2.88;1.50;;;18.90;63.50;;;;;;4934289;29;20388;-82
2021/06/02 05:25:49;;;;;;;2.55;1.63;;;;;;;;;;4930756;29;20050;-81
2021/06/02 05:28:57;;;;;;;3.80;1.75;;;19.20;71.90;;;;;;4933891;29;20031;-82
2021/06/02 05:31:59;;;;;;;2.35;1.70;;;19.20;64.00;;;;;;4927807;29;20044;-82
2021/06/02 05:34:43;;;;;;;2.60;1.40;;;19.30;64.10;;;;;;4933075;29;20051;-81
2021/06/02 05:37:09;;;;;;;7.93;2.10;;;;;;;;;;4932644;29;20175;-82
2021/06/02 05:40:08;;;;;;;3.00;1.73;;;19.20;86.60;;;;;;4933350;29;20591;-82
2021/06/02 05:43:04;;;;;;;2.55;1.40;;;19.20;63.00;;;;;;4932037;29;20139;-82
2021/06/02 05:45:30;;;;;;;3.40;1.55;;;;;;;;;;4932163;29;20579;-82
2021/06/02 05:48:29;;;;;;;6.68;1.55;;;19.20;86.70;;;;;;4932506;29;20035;-81
2021/06/02 05:51:26;;;;;;;3.00;1.55;;;19.30;87.80;;;;;;4932830;29;20035;-82
2021/06/02 05:54:16;;;;;;;6.35;2.00;;;19.10;64.40;;;;;;4932447;29;20492;-82
2021/06/02 05:57:34;;;;;;;4.57;2.00;;;18.80;64.70;;;;;;4933286;29;20039;-82
2021/06/02 06:00:28;;;;;;;5.70;1.52;;;19.50;61.90;;;;;;4986858;28;20035;-82
2021/06/02 06:03:19;;;;;;;5.88;2.42;;;19.40;83.60;;;;;;4988550;28;20601;-80
2021/06/02 06:05:54;;;;;;;2.55;1.27;;;;;;;;;;4993718;28;20507;-81
2021/06/02 06:09:04;;;;;;;2.70;2.08;;;19.30;64.30;;;;;;4991011;28;20121;-81
2021/06/02 06:12:09;;;;;;;3.20;1.67;;;19.40;79.70;;;;;;4992121;28;20026;-81
2021/06/02 06:15:02;;;;;;;3.30;1.83;;;19.20;65.50;;;;;;5004210;28;28889;-82
2021/06/02 06:17:40;;;;;;;1.98;1.35;;;19.20;65.50;;;;;;4988360;28;20037;-81
2021/06/02 06:20:30;;;;;;;6.40;1.20;;;19.30;88.00;;;;;;4977034;28;20513;-81
2021/06/02 06:23:18;;;;;;;3.30;1.30;;;19.20;63.30;;;;;;4992082;28;20043;-81
2021/06/02 06:26:00;;;;;;;3.63;1.65;;;19.40;84.30;;;;;;4977950;28;20493;-80
2021/06/02 06:28:40;;;;;;;12.85;2.47;;;19.30;64.70;;;;;;4998128;28;20414;-81
2021/06/02 06:31:28;;;;;;;2.58;1.70;;;19.50;65.50;;;;;;4979198;28;20110;-81
2021/06/02 06:33:56;;;;;;;2.22;1.42;;;19.60;64.30;;;;;;4984348;28;20045;-81
2021/06/02 06:36:26;;;;;;;2.13;1.17;;;19.50;66.40;;;;;;4985088;28;20081;-81
2021/06/02 06:39:19;;;;;;;3.00;1.98;;;19.70;87.60;;;;;;4989695;28;20030;-82
2021/06/02 06:41:48;;;;;;;6.43;1.85;;;19.60;64.00;;;;;;4975110;28;20042;-89
2021/06/02 06:44:17;;;;;;;3.72;1.83;;;19.70;63.50;;;;;;4976978;28;20030;-82
2021/06/02 06:46:46;;;;;;;6.13;1.70;;;19.60;64.10;;;;;;4973197;28;20522;-84
2021/06/02 06:49:12;;;;;;;3.63;1.60;;;19.60;64.30;;;;;;4998548;28;20027;-82
2021/06/02 06:51:40;;;;;;;1.87;1.40;;;19.70;64.80;;;;;;4989965;28;20204;-82
2021/06/02 06:54:11;;;;;;;8.20;1.70;;;19.70;64.50;;;;;;4987939;28;20065;-83
2021/06/02 06:56:37;;;;;;;7.30;1.20;;;;;;;;;;4985103;28;20033;-83
2021/06/02 06:59:03;;;;;;;2.92;1.50;;;;;;;;;;4988460;28;20052;-81
2021/06/02 07:01:29;;;;;;;3.22;1.45;;;19.70;63.70;;;;;;4985582;28;20133;-81
2021/06/02 07:03:57;;;;;;;2.33;1.45;;;19.80;63.30;;;;;;4987269;28;20022;-83
2021/06/02 07:06:23;;;;;;;5.88;2.47;;;19.90;62.80;;;;;;4986893;28;20534;-83
2021/06/02 07:08:50;;;;;;;2.75;1.85;;;;;;;;;;4981199;28;20045;-82
2021/06/02 07:11:17;;;;;;;5.57;1.80;;;;;;;;;;4986741;28;20105;-84
2021/06/02 07:13:46;;;;;;;6.47;2.53;;;19.60;63.60;;;;;;4997055;28;20026;-86
2021/06/02 07:16:13;;;;;;;2.78;1.23;;;19.70;63.20;;;;;;5000012;28;20140;-82
2021/06/02 07:18:41;;;;;;;;;;;19.70;62.50;;;;;;5005551;28;20034;-83
2021/06/02 07:21:07;;;;;;;1.63;1.10;;;;;;;;;;5000254;28;19937;-84
2021/06/02 07:23:33;;;;;;;1.40;1.00;;;;;;;;;;5007336;28;20602;-84
2021/06/02 07:26:00;;;;;;;2.03;1.10;;;;;;;;;;5000097;28;20291;-83
2021/06/02 07:28:40;;;;;;;1.92;1.10;;;20.00;74.70;;;;;;5013636;28;20036;-84
2021/06/02 07:31:08;;;;;;;1.83;1.08;;;20.10;58.80;;;;;;5023818;28;20038;-84
2021/06/02 07:33:33;;;;;;;;;;;20.10;57.80;;;;;;5008854;28;20022;-83
2021/06/02 07:35:59;;;;;;;1.70;1.17;;;;;;;;;;5016423;28;20945;-84
2021/06/02 07:38:25;;;;;;;2.15;1.38;;;;;;;;;;4996497;28;20022;-83
2021/06/02 07:40:51;;;;;;;3.50;1.33;;;;;;;;;;5004919;28;20030;-84
2021/06/02 07:43:17;;;;;;;1.83;1.00;;;;;;;;;;5003719;28;20029;-83
2021/06/02 07:45:44;;;;;;;2.72;1.10;;;;;;;;;;5004305;28;20038;-83
2021/06/02 07:48:10;;;;;;;2.55;1.10;;;;;;;;;;5003920;28;20030;-83
2021/06/02 07:50:36;;;;;;;3.30;1.25;;;;;;;;;;5004821;28;20069;-85
2021/06/02 07:53:02;;;;;;;1.67;0.98;;;;;;;;;;5005167;28;20049;-83
2021/06/02 07:55:28;;;;;;;1.35;1.00;;;;;;;;;;4998914;28;20037;-83
2021/06/02 07:57:54;;;;;;;3.30;1.85;;;;;;;;;;4996716;28;20037;-83
2021/06/02 08:00:21;;;;;;;2.42;1.60;;;;;;;;;;4996494;28;20025;-83
2021/06/02 08:02:47;;;;;;;2.45;1.65;;;;;;;;;;5001655;28;20799;-81
2021/06/02 08:05:15;;;;;;;1.52;1.02;;;;;;;;;;5000556;28;20109;-82
2021/06/02 08:07:44;;;;;;;2.17;1.10;;;;;;;;;;5000370;28;20526;-80
2021/06/02 08:10:11;;;;;;;2.33;1.30;;;20.20;59.90;;;;;;5005248;28;20041;-81
2021/06/02 08:12:37;;;;;;;2.67;1.27;;;;;;;;;;5003166;28;20030;-80
2021/06/02 08:15:05;;;;;;;1.60;1.08;;;20.20;61.80;;;;;;4990844;28;20119;-82
2021/06/02 08:17:32;;;;;;;1.48;1.10;;;;;;;;;;4981954;28;20046;-83
2021/06/02 08:19:58;;;;;;;;;;;20.20;60.40;;;;;;5004420;28;20054;-82
2021/06/02 08:22:24;;;;;;;1.77;0.90;;;;;;;;;;4999677;28;20464;-81
2021/06/02 08:24:50;;;;;;;3.28;2.08;;;;;;;;;;5002557;28;20029;-82
2021/06/02 08:27:16;;;;;;;4.22;1.08;;;;;;;;;;4997894;28;20593;-83
2021/06/02 08:29:42;;;;;;;1.75;1.17;;;;;;;;;;5005518;28;20045;-83
2021/06/02 08:32:08;;;;;;;2.75;2.10;;;;;;;;;;4992033;28;20026;-83
2021/06/02 08:34:34;;;;;;;4.90;1.60;;;;;;;;;;4994374;28;20034;-83
2021/06/02 08:37:00;;;;;;;3.13;1.80;;;;;;;;;;5001173;28;20040;-85
2021/06/02 08:39:26;;;;;;;1.35;1.23;;;;;;;;;;5000581;28;20113;-84
2021/06/02 08:41:52;;;;;;;3.55;1.15;;;;;;;;;;5006489;28;20033;-83
2021/06/02 08:44:19;;;;;;;7.22;1.67;;;;;;;;;;4989529;28;20479;-83
2021/06/02 08:46:47;;;;;;;3.33;1.40;;;20.20;63.20;;;;;;4989403;28;20038;-84
2021/06/02 08:49:17;;;;;;;3.22;1.20;;;;;;;;;;4983638;28;20033;-84
2021/06/02 08:51:43;;;;;;;4.78;1.35;;;;;;;;;;4999016;28;20030;-83
2021/06/02 08:54:10;;;;;;;2.28;1.23;;;;;;;;;;4980432;28;20026;-83
2021/06/02 08:56:43;;;;;;;0.98;0.85;;;20.40;61.60;;;;;;4973032;28;20217;-84
2021/06/02 08:59:10;;;;;;;2.33;0.80;;;;;;;;;;5004574;28;20022;-84
2021/06/02 09:01:36;;;;;;;1.85;1.35;;;;;;;;;;5002289;28;20131;-83
2021/06/02 09:04:06;;;;;;;2.50;2.30;;;20.30;63.40;;;;;;5003977;28;20022;-82
2021/06/02 09:06:33;;;;;;;4.47;1.45;;;;;;;;;;5000136;28;20029;-83
2021/06/02 09:09:04;;;;;;;1.52;1.27;;;20.20;64.50;;;;;;5004138;28;20544;-84
2021/06/02 09:11:30;;;;;;;7.05;2.75;;;;;;;;;;5006314;28;20040;-83
2021/06/02 09:13:59;;;;;;;6.65;1.60;;;20.20;64.60;;;;;;5004461;28;20118;-82
2021/06/02 09:16:29;;;;;;;2.67;1.27;;;;;;;;;;4997631;28;20056;-79
2021/06/02 09:19:09;;;;;;;2.95;1.63;;;20.30;64.70;;;;;;4998518;28;20117;-81
2021/06/02 09:21:38;;;;;;;10.88;1.58;;;20.30;65.70;;;;;;4997318;28;20038;-81
2021/06/02 09:24:05;;;;;;;2.47;1.42;;;;;;;;;;5003199;28;20360;-81
2021/06/02 09:26:31;;;;;;;1.48;1.35;;;;;;;;;;4995745;28;20030;-81
2021/06/02 09:28:58;;;;;;;1.20;0.73;;;;;;;;;;4989398;28;20495;-81
2021/06/02 09:31:31;;;;;;;1.77;1.00;;;20.50;63.60;;;;;;5003159;28;20355;-83
2021/06/02 09:34:19;;;;;;;2.17;1.98;;;20.60;63.40;;;;;;5002133;28;20037;-83
2021/06/02 09:36:51;;;;;;;1.63;1.17;;;20.90;69.40;;;;;;4998575;28;20030;-83
2021/06/02 09:39:21;;;;;;;1.83;1.00;;;20.70;61.80;;;;;;4998536;28;20070;-83
2021/06/02 09:41:54;;;;;;;2.97;1.15;;;20.70;70.70;;;;;;4998073;28;20165;-82
2021/06/02 09:44:22;;;;;;;1.08;0.80;;;20.70;61.90;;;;;;5002260;28;20118;-90
2021/06/02 09:47:07;;;;;;;1.73;1.08;;;20.80;62.20;;;;;;4996271;28;20033;-83
2021/06/02 09:49:55;;;;;;;1.45;1.05;;;21.00;70.70;;;;;;4998289;28;20441;-81
2021/06/02 09:52:37;;;;;;;3.10;1.52;;;20.90;61.00;;;;;;5001180;28;20080;-82
2021/06/02 09:55:17;;;;;;;0.98;0.70;;;21.20;68.60;;;;;;5005970;28;20117;-84
2021/06/02 09:57:43;;;;;;;3.30;1.70;;;21.30;61.30;;;;;;4999026;28;20664;-81
2021/06/02 10:00:10;;;;;;;2.10;0.93;;;;;;;;;;4988681;28;20022;-88
2021/06/02 10:02:36;;;;;;;1.42;1.13;;;;;;;;;;4990929;28;20293;-84
2021/06/02 10:05:09;;;;;;;1.17;1.05;;;21.40;82.00;;;;;;5001538;28;20088;-84
2021/06/02 10:07:48;;;;;;;3.35;1.15;;;;;;;;;;5004379;28;20077;-84
2021/06/02 10:10:14;;;;;;;3.88;1.08;;;;;;;;;;5003663;28;20520;-84
2021/06/02 10:12:56;;;;;;;1.55;0.88;;;;;;;;;;5004043;28;20025;-85
2021/06/02 10:15:30;;;;;;;1.17;0.70;;;21.70;56.70;;;;;;5001615;28;20060;-85
2021/06/02 10:17:56;;;;;;;1.13;0.77;;;;;;;;;;5000171;28;20477;-83
2021/06/02 10:20:22;;;;;;;1.80;1.23;;;;;;;;;;4996736;28;20038;-86
2021/06/02 10:22:53;;;;;;;1.33;0.98;;;22.10;54.90;;;;;;4997965;28;20130;-91
2021/06/02 10:25:20;;;;;;;1.75;1.17;;;22.20;56.60;;;;;;4997830;28;20033;-84
2021/06/02 10:27:47;;;;;;;;;;;22.20;56.70;;;;;;4994525;28;20038;-85
2021/06/02 10:30:13;;;;;;;1.33;0.70;;;;;;;;;;5004412;28;19921;-83
2021/06/02 10:32:41;;;;;;;1.30;0.82;;;;;;;;;;5005970;28;20026;-83
2021/06/02 10:35:07;;;;;;;1.48;0.82;;;;;;;;;;4991250;28;20033;-84
2021/06/02 10:37:39;;;;;;;1.00;0.88;;;23.00;54.20;;;;;;4997021;28;20034;-83
2021/06/02 10:40:10;;;;;;;2.15;0.98;;;23.20;52.00;;;;;;5001960;28;20037;-83
2021/06/02 10:43:01;;;;;;;0.90;0.50;;;23.60;54.00;;;;;;5000890;28;20040;-88
2021/06/02 10:45:54;;;;;;;4.45;1.00;;;23.80;52.10;;;;;;5000219;28;20061;-84
2021/06/02 10:48:56;;;;;;;0.80;0.55;;;23.90;48.70;;;;;;4989469;28;20557;-83
2021/06/02 10:51:31;;;;;;;1.30;0.98;;;23.10;48.30;;;;;;4886452;29;20039;-83
2021/06/02 10:54:06;;;;;;;4.75;0.98;;;24.00;49.90;;;;;;4905911;29;20055;-82
2021/06/02 10:56:33;;;;;;;1.23;0.57;;;;;;;;;;4890766;29;20046;-83
2021/06/02 10:59:00;;;;;;;0.60;0.50;;;;;;;;;;4899850;29;20040;-84
2021/06/02 11:01:27;;;;;;;1.38;0.40;;;;;;;;;;4904991;29;20052;-82
2021/06/02 11:04:10;;;;;;;1.98;0.55;;;24.50;71.10;;;;;;4903936;29;20544;-84
2021/06/02 11:06:43;;;;;;;1.13;0.70;;;24.30;47.40;;;;;;4898199;29;20039;-84
2021/06/02 11:09:13;;;;;;;1.10;0.52;;;24.30;47.60;;;;;;4911820;29;20064;-79
2021/06/02 11:11:45;;;;;;;1.35;0.65;;;24.10;47.20;;;;;;4894813;29;20058;-80
2021/06/02 11:14:14;;;;;;;1.50;0.40;;;;;;;;;;4911975;29;20036;-81
2021/06/02 11:16:42;;;;;;;4.38;0.95;;;;;;;;;;4902934;29;20059;-81
2021/06/02 11:19:19;;;;;;;1.65;0.52;;;23.90;47.70;;;;;;4909852;29;20574;-79
2021/06/02 11:21:48;;;;;;;0.47;0.30;;;;;;;;;;4910081;29;20080;-78
2021/06/02 11:24:36;;;;;;;1.08;0.60;;;23.60;47.20;;;;;;4906941;28;20032;-80
2021/06/02 11:27:11;;;;;;;1.02;0.75;;;23.50;47.70;;;;;;4999217;28;20117;-79
2021/06/02 11:29:56;;;;;;;0.40;0.30;;;23.60;48.30;;;;;;5004185;28;20128;-78
2021/06/02 11:32:45;;;;;;;0.70;0.40;;;23.50;47.80;;;;;;4991873;28;20038;-80
2021/06/02 11:35:11;;;;;;;0.90;0.50;;;;;;;;;;4990428;28;20025;-78
2021/06/02 11:37:37;;;;;;;1.60;0.45;;;23.50;44.60;;;;;;4999696;28;20032;-81
2021/06/02 11:40:06;;;;;;;0.73;0.50;;;23.50;44.70;;;;;;5006267;28;20037;-79
2021/06/02 11:42:39;;;;;;;1.13;0.82;;;;;;;;;;5000634;28;20038;-81
2021/06/02 11:45:27;;;;;;;0.47;0.40;;;23.60;57.60;;;;;;5000526;28;20136;-81
2021/06/02 11:47:56;;;;;;;0.70;0.40;;;23.50;46.70;;;;;;4987395;28;20041;-82
2021/06/02 11:50:25;;;;;;;0.73;0.52;;;;;;;;;;4992561;28;20030;-81
2021/06/02 11:53:02;;;;;;;1.13;0.38;;;23.50;47.10;;;;;;4996902;28;20054;-80
2021/06/02 11:55:29;;;;;;;1.80;0.65;;;23.50;48.70;;;;;;5002616;28;20018;-81
2021/06/02 11:57:55;;;;;;;;;;;23.50;47.20;;;;;;4996410;28;20042;-80
2021/06/02 12:00:22;;;;;;;2.95;0.63;;;23.50;48.80;;;;;;5008775;28;19909;-79
2021/06/02 12:02:53;;;;;;;0.47;0.40;;;23.30;47.20;;;;;;5009581;28;20033;-82
2021/06/02 12:05:26;;;;;;;0.52;0.40;;;23.30;47.10;;;;;;4990033;28;20522;-82
2021/06/02 12:07:55;;;;;;;0.73;0.45;;;23.50;46.70;;;;;;4989676;28;20441;-81
2021/06/02 12:10:22;;;;;;;2.33;0.35;;;23.60;48.30;;;;;;5001761;28;20034;-82
2021/06/02 12:12:48;;;;;;;;;;;23.60;48.40;;;;;;5001326;28;20041;-80
2021/06/02 12:15:15;;;;;;;0.43;0.32;;;23.80;48.00;;;;;;5003049;28;20357;-82
2021/06/02 12:17:42;;;;;;;1.10;0.70;;;;;;;;;;4978936;28;20038;-83
2021/06/02 12:20:12;;;;;;;2.05;0.50;;;23.60;46.50;;;;;;5001839;28;20053;-81
2021/06/02 12:22:39;;;;;;;0.63;0.32;;;;;;;;;;5001810;28;20042;-83
2021/06/02 12:25:05;;;;;;;0.68;0.55;;;;;;;;;;5003487;28;20107;-82
2021/06/02 12:27:41;;;;;;;0.43;0.40;;;;;;;;;;4992722;28;20037;-82
2021/06/02 12:30:14;;;;;;;1.63;1.52;;;23.80;47.50;;;;;;5000031;28;20026;-81
2021/06/02 12:32:59;;;;;;;0.95;0.60;;;24.00;47.10;;;;;;4999442;28;20388;-81
2021/06/02 12:35:29;;;;;;;0.88;0.50;;;24.10;47.70;;;;;;5003287;28;20025;-82
2021/06/02 12:38:05;;;;;;;1.55;0.30;;;24.10;48.00;;;;;;4996093;28;20051;-81
2021/06/02 12:40:36;;;;;;;1.92;1.45;;;24.20;46.40;;;;;;5001147;28;20586;-83
2021/06/02 12:43:02;;;;;;;0.70;0.43;;;;;;;;;;4999870;28;20049;-84
2021/06/02 12:45:31;;;;;;;1.15;0.50;;;23.80;46.60;;;;;;5003581;28;20117;-80
2021/06/02 12:47:57;;;;;;;1.95;0.75;;;;;;;;;;4996002;28;20045;-83
2021/06/02 12:50:44;;;;;;;0.60;0.40;;;23.60;46.70;;;;;;5007162;28;20025;-82
2021/06/02 12:53:12;;;;;;;3.10;0.93;;;23.60;46.70;;;;;;5012567;28;20045;-82
2021/06/02 12:55:59;;;;;;;0.63;0.60;;;;;;;;;;4995507;28;20030;-84
2021/06/02 12:58:24;;;;;;;;;;;23.60;47.80;;;;;;4983506;28;20042;-82
2021/06/02 13:00:50;;;;;;;8.38;0.57;;;;;;;;;;4994043;28;19940;-81
2021/06/02 13:03:20;;;;;;;1.65;0.47;;;23.60;48.30;;;;;;4990877;28;20065;-81
2021/06/02 13:05:47;;;;;;;0.60;0.40;;;;;;;;;;4997422;28;20038;-82
2021/06/02 13:08:13;;;;;;;1.65;0.80;;;;;;;;;;5003531;28;20022;-83
2021/06/02 13:10:41;;;;;;;0.70;0.60;;;23.60;46.30;;;;;;5002389;28;20395;-82
2021/06/02 13:13:09;;;;;;;0.98;0.47;;;23.60;46.70;;;;;;4995230;28;20038;-82
2021/06/02 13:16:01;;;;;;;2.92;0.90;;;23.70;47.00;;;;;;4992456;28;20497;-83
2021/06/02 13:18:28;;;;;;;3.13;0.88;;;23.80;46.90;;;;;;5001088;28;20057;-82
2021/06/02 13:20:56;;;;;;;0.50;0.38;;;23.80;45.60;;;;;;4985410;28;20088;-82
2021/06/02 13:23:21;;;;;;;;;;;23.90;46.00;;;;;;5004596;28;20034;-81
2021/06/02 13:26:09;;;;;;;2.53;0.60;;;23.90;45.60;;;;;;4989479;28;19913;-83
2021/06/02 13:28:44;;;;;;;1.27;0.70;;;23.90;44.80;;;;;;5007496;28;20410;-81
2021/06/02 13:31:12;;;;;;;1.98;0.85;;;24.00;45.20;;;;;;5008353;28;20103;-79
2021/06/02 13:33:45;;;;;;;5.10;0.60;;;24.00;45.30;;;;;;5008539;28;20030;-80
2021/06/02 13:36:16;;;;;;;5.38;0.73;;;24.00;45.70;;;;;;5001094;28;20033;-81
2021/06/02 13:38:42;;;;;;;1.38;0.82;;;;;;;;;;5002433;28;20391;-81
2021/06/02 13:41:24;;;;;;;0.50;0.40;;;24.00;45.00;;;;;;5008147;28;20410;-78
2021/06/02 13:43:52;;;;;;;1.30;0.60;;;;;;;;;;4997484;28;20034;-80
2021/06/02 13:46:23;;;;;;;1.08;0.50;;;;;;;;;;4992117;28;20041;-81
2021/06/02 13:48:51;;;;;;;1.08;0.65;;;23.80;45.20;;;;;;4998121;28;21103;-81
2021/06/02 13:51:19;;;;;;;1.40;0.52;;;;;;;;;;5003469;28;20082;-82
2021/06/02 13:54:12;;;;;;;1.73;0.90;;;23.60;46.10;;;;;;5007876;28;20045;-81
2021/06/02 13:56:52;;;;;;;1.42;0.60;;;23.40;47.10;;;;;;4994397;28;20034;-81
2021/06/02 13:59:18;;;;;;;0.82;0.60;;;;;;;;;;5007621;28;20029;-82
2021/06/02 14:01:46;;;;;;;0.80;0.63;;;23.30;47.10;;;;;;5001337;28;20526;-81
2021/06/02 14:04:13;;;;;;;4.20;0.90;;;23.40;47.80;;;;;;5000778;28;20068;-81
2021/06/02 14:06:39;;;;;;;3.40;0.90;;;;;;;;;;5001173;28;20702;-80
2021/06/02 14:09:09;;;;;;;4.55;1.40;;;23.40;47.90;;;;;;5004950;28;20033;-82